Impacts TAF Board
For situational awareness. Not to be used for flight planning purposes.
IDs:

KALW - Walla Walla Rgnl, WA, US

Issued at 2332 UTC 05 Dec 2019
Updated at 0115 UTC 06 Dec 2019
Potential Impact None Slight Moderate High
Time0053Z 06/02Z 06/03Z 06/04Z 06/05Z 06/06Z 06/07Z 06/08Z 06/09Z 06/10Z 06/11Z 06/12Z 06/13Z 06/14Z>>
Type OBS PRVL PRVL PRVL PRVL PRVL PRVL PRVL PRVL PRVL PRVL PRVL PRVL PRVL
VIS 10 0.5 0.5 0.5 0.5 0.5 0.5 0.5 0.5 0.5 0.5 0.5 0.5 0.5
CIG -- 2 2 2 2 2 2 2 2 2 2 2 2 2
Cover CLR OVC OVC OVC OVC OVC OVC OVC OVC OVC OVC OVC OVC OVC
FltCat VFR LIFR LIFR LIFR LIFR LIFR LIFR LIFR LIFR LIFR LIFR LIFR LIFR LIFR
WX -- FG FG FG FG FG FG FG FG FG FG FG FG FG
WDir 110 160 160 160 160 160 160 160 160 160 160 160 160 160
WSpd 4 4 4 4 4 4 4 4 4 4 4 4 4 4
WGst -- -- -- -- -- -- -- -- -- -- -- -- -- --
Raw TAF
KALW 052332Z 0600/0624 VRB03KT P6SM SCT060 OVC120
  FM060200 16004KT 1/2SM FG OVC002
  FM061600 VRB04KT 2SM BR SCT002 SCT150
  FM062000 22005KT P6SM SCT070 BKN200


Raw METAR
KALW 060053Z 11004KT 10SM CLR 02/00 A3013 RMK AO2 SLP214 T00170000
KALW 052353Z 22003KT 10SM SCT120 04/01 A3013 RMK AO2 SLP213 T00390011 10056 20011 53008
KALW 052253Z 02003KT 10SM SCT120 05/02 A3012 RMK AO2 SLP208 T00500017

METAR Board
Radar Display
Forecast Discussion
For situational awareness. Not to be used for flight planning purposes.